createdAt,value
2023-03-17T00:04:25.488Z,2.37
2023-03-17T00:09:28.559Z,2.48
2023-03-17T00:14:32.852Z,2.41
2023-03-17T00:19:37.002Z,2.41
2023-03-17T00:24:39.920Z,2.27
2023-03-17T00:29:44.186Z,2.32
2023-03-17T00:34:47.785Z,2.20
2023-03-17T00:39:52.131Z,2.20
2023-03-17T00:44:56.408Z,2.06
2023-03-17T00:49:59.660Z,1.98
2023-03-17T00:55:02.567Z,1.98
2023-03-17T01:00:17.698Z,2.03
2023-03-17T01:05:21.799Z,2.05
2023-03-17T01:10:27.190Z,1.88
2023-03-17T01:15:32.632Z,2.01
2023-03-17T01:20:35.722Z,1.93
2023-03-17T01:25:40.065Z,2.02
2023-03-17T01:30:45.265Z,1.93
2023-03-17T01:35:48.255Z,1.88
2023-03-17T01:40:52.413Z,1.90
2023-03-17T01:46:29.702Z,1.73
2023-03-17T01:51:37.817Z,1.89
2023-03-17T01:56:44.438Z,1.88
2023-03-17T02:01:51.473Z,2.00
2023-03-17T02:06:58.407Z,1.87
2023-03-17T02:12:03.966Z,1.83
2023-03-17T02:17:09.881Z,1.88
2023-03-17T02:22:14.244Z,2.55
2023-03-17T02:27:24.943Z,2.69
2023-03-17T02:32:29.777Z,2.43
2023-03-17T02:37:34.562Z,2.56
2023-03-17T02:42:39.253Z,2.40
2023-03-17T02:47:43.279Z,2.30
2023-03-17T02:52:47.551Z,2.23
2023-03-17T02:57:50.421Z,2.37
2023-03-17T03:02:53.437Z,2.52
2023-03-17T03:07:57.767Z,2.50
2023-03-17T03:13:01.690Z,2.31
2023-03-17T03:18:04.848Z,2.11
2023-03-17T03:23:09.144Z,2.19
2023-03-17T03:28:12.083Z,2.07
2023-03-17T03:33:16.135Z,2.16
2023-03-17T03:38:20.372Z,2.03
2023-03-17T03:43:24.181Z,2.07
2023-03-17T03:48:27.314Z,2.17
2023-03-17T03:53:31.669Z,2.05
2023-03-17T03:58:34.613Z,2.09
2023-03-17T04:03:38.377Z,2.05
2023-03-17T04:08:42.868Z,2.08
2023-03-17T04:13:45.839Z,2.07
2023-03-17T04:18:48.800Z,2.08
2023-03-17T04:23:53.283Z,2.16
2023-03-17T04:28:56.181Z,2.20
2023-03-17T04:33:59.095Z,2.21
2023-03-17T04:39:03.896Z,2.13
2023-03-17T04:44:07.229Z,2.10
2023-03-17T04:49:10.306Z,1.95
2023-03-17T04:54:14.527Z,2.00
2023-03-17T04:59:17.533Z,1.92
2023-03-17T05:04:31.180Z,1.77
2023-03-17T05:09:36.223Z,1.88
2023-03-17T05:14:39.315Z,1.87
2023-03-17T05:19:42.490Z,1.82
2023-03-17T05:24:47.652Z,1.98
2023-03-17T05:29:50.683Z,2.37
2023-03-17T05:34:53.687Z,2.63
2023-03-17T05:39:58.000Z,2.56
2023-03-17T05:45:00.893Z,2.57
2023-03-17T05:50:04.761Z,2.96
2023-03-17T05:55:10.190Z,2.95
2023-03-17T06:00:16.154Z,3.12
2023-03-17T06:05:19.258Z,3.27
2023-03-17T06:10:24.115Z,3.19
2023-03-17T06:15:27.677Z,3.04
2023-03-17T06:20:31.242Z,3.25
2023-03-17T06:25:37.066Z,3.79
2023-03-17T06:30:40.951Z,4.19
2023-03-17T06:35:43.978Z,4.78
2023-03-17T06:40:48.304Z,5.69
2023-03-17T06:45:51.628Z,6.28
2023-03-17T06:50:54.528Z,6.49
2023-03-17T06:55:59.015Z,7.01
2023-03-17T07:01:02.382Z,6.22
2023-03-17T07:06:05.514Z,6.74
2023-03-17T07:11:09.924Z,7.16
2023-03-17T07:16:15.197Z,7.56
2023-03-17T07:21:18.319Z,7.94
2023-03-17T07:26:22.684Z,8.18
2023-03-17T07:31:25.643Z,7.49
2023-03-17T07:36:28.599Z,7.15
2023-03-17T07:41:32.836Z,6.99
2023-03-17T07:46:35.768Z,6.76
2023-03-17T07:51:38.803Z,6.62
2023-03-17T07:56:43.448Z,6.94
2023-03-17T08:01:46.380Z,7.42
2023-03-17T08:06:49.423Z,7.75
2023-03-17T08:11:53.925Z,8.38
2023-03-17T08:16:57.530Z,8.54
2023-03-17T08:22:01.407Z,9.17
2023-03-17T08:27:05.813Z,8.72
2023-03-17T08:32:09.690Z,8.96
2023-03-17T08:37:12.634Z,9.11
2023-03-17T08:42:17.059Z,9.01
2023-03-17T08:47:19.983Z,8.95
2023-03-17T08:52:23.206Z,9.10
2023-03-17T08:57:28.149Z,9.81
2023-03-17T09:02:31.069Z,10.00
2023-03-17T09:07:34.194Z,9.95
2023-03-17T09:12:39.123Z,10.44
2023-03-17T09:17:43.366Z,10.54
2023-03-17T09:22:47.761Z,11.05
2023-03-17T09:27:52.586Z,11.13
2023-03-17T09:32:55.500Z,10.99
2023-03-17T09:37:58.900Z,11.50
2023-03-17T09:43:11.481Z,11.54
2023-03-17T09:48:51.788Z,11.48
2023-03-17T09:54:01.224Z,11.55
2023-03-17T09:59:08.676Z,11.65
2023-03-17T10:04:12.397Z,11.83
2023-03-17T10:09:26.220Z,11.97
2023-03-17T10:14:44.978Z,11.93
2023-03-17T10:19:57.138Z,11.99
2023-03-17T10:25:05.272Z,12.22
2023-03-17T10:30:16.499Z,12.30
2023-03-17T10:35:19.996Z,12.15
2023-03-17T10:40:25.243Z,12.41
2023-03-17T10:45:31.415Z,12.71
2023-03-17T10:50:36.917Z,12.55
2023-03-17T10:55:44.635Z,12.91
2023-03-17T11:00:57.817Z,12.87
2023-03-17T11:06:04.009Z,12.88
2023-03-17T11:11:10.280Z,12.64
2023-03-17T11:16:23.300Z,12.68
2023-03-17T11:21:31.119Z,12.85
2023-03-17T11:26:53.198Z,13.05
2023-03-17T11:32:21.308Z,13.19
2023-03-17T11:37:37.687Z,13.35
2023-03-17T11:42:52.121Z,13.70
2023-03-17T11:48:18.782Z,13.77
2023-03-17T11:53:41.341Z,13.92
2023-03-17T11:58:46.320Z,13.97
2023-03-17T12:03:55.654Z,14.05
2023-03-17T12:09:07.780Z,14.26
2023-03-17T12:14:25.179Z,14.42
2023-03-17T12:19:37.478Z,14.62
2023-03-17T12:24:47.038Z,14.11
2023-03-17T12:29:56.088Z,14.38
2023-03-17T12:35:05.128Z,14.51
2023-03-17T12:40:14.434Z,14.52
2023-03-17T12:45:44.751Z,14.67
2023-03-17T12:51:36.305Z,14.34
2023-03-17T12:56:46.338Z,14.33
2023-03-17T13:01:58.501Z,14.58
2023-03-17T13:07:07.475Z,14.09
2023-03-17T13:12:44.362Z,14.02
2023-03-17T13:17:47.299Z,14.02
2023-03-17T13:23:15.110Z,13.88
2023-03-17T13:28:25.742Z,13.92
2023-03-17T13:33:32.554Z,13.75
2023-03-17T13:39:30.449Z,13.95
2023-03-17T13:44:45.445Z,13.65
2023-03-17T13:49:51.605Z,13.66
2023-03-17T13:55:02.609Z,13.78
2023-03-17T14:00:24.484Z,13.71
2023-03-17T14:05:31.320Z,13.56
2023-03-17T14:10:35.795Z,13.54
2023-03-17T14:15:48.203Z,13.58
2023-03-17T14:20:54.721Z,13.60
2023-03-17T14:26:00.110Z,13.59
2023-03-17T14:31:06.814Z,13.23
2023-03-17T14:36:14.529Z,13.43
2023-03-17T14:41:19.960Z,13.58
2023-03-17T14:46:26.889Z,13.74
2023-03-17T14:51:33.618Z,13.53
2023-03-17T14:56:39.265Z,13.63
2023-03-17T15:01:47.392Z,13.65
2023-03-17T15:06:52.310Z,13.63
2023-03-17T15:11:57.388Z,13.47
2023-03-17T15:17:04.075Z,13.30
2023-03-17T15:22:23.573Z,13.29
2023-03-17T15:27:27.136Z,13.19
2023-03-17T15:32:32.340Z,12.94
2023-03-17T15:37:36.695Z,12.74
2023-03-17T15:42:40.472Z,12.68
2023-03-17T15:47:47.050Z,12.62
2023-03-17T15:52:49.952Z,12.35
2023-03-17T15:57:55.526Z,12.27
2023-03-17T16:03:02.659Z,12.06
2023-03-17T16:08:05.909Z,12.00
2023-03-17T16:13:09.544Z,11.97
2023-03-17T16:18:18.179Z,11.64
2023-03-17T16:23:24.159Z,11.68
2023-03-17T16:28:28.938Z,11.55
2023-03-17T16:33:40.116Z,11.48
2023-03-17T16:38:43.021Z,11.27
2023-03-17T16:43:51.262Z,11.29
2023-03-17T16:48:56.696Z,11.24
2023-03-17T16:53:59.672Z,11.04
2023-03-17T16:59:03.098Z,11.00
2023-03-17T17:04:11.621Z,10.76
2023-03-17T17:09:14.512Z,10.79
2023-03-17T17:14:17.423Z,10.70
2023-03-17T17:19:21.950Z,10.70
2023-03-17T17:24:24.982Z,10.65
2023-03-17T17:29:29.234Z,10.55
2023-03-17T17:34:34.473Z,10.62
2023-03-17T17:39:37.668Z,10.58
2023-03-17T17:44:40.847Z,10.53
2023-03-17T17:49:45.185Z,10.54
2023-03-17T17:54:48.172Z,10.43
2023-03-17T17:59:51.153Z,10.26
2023-03-17T18:04:55.665Z,10.24
2023-03-17T18:09:58.760Z,10.36
2023-03-17T18:15:01.986Z,10.30
2023-03-17T18:20:10.369Z,10.30
2023-03-17T18:25:15.361Z,10.14
2023-03-17T18:30:23.396Z,10.01
2023-03-17T18:35:28.857Z,10.05
2023-03-17T18:40:31.993Z,9.86
2023-03-17T18:45:35.763Z,9.90
2023-03-17T18:50:40.892Z,9.83
2023-03-17T18:55:44.592Z,9.73
2023-03-17T19:00:47.500Z,9.75
2023-03-17T19:05:51.906Z,9.87
2023-03-17T19:10:54.825Z,9.59
2023-03-17T19:15:58.211Z,9.57
2023-03-17T19:21:03.395Z,9.54
2023-03-17T19:26:07.601Z,9.42
2023-03-17T19:31:11.042Z,9.47
2023-03-17T19:36:15.479Z,9.49
2023-03-17T19:41:18.744Z,9.32
2023-03-17T19:46:21.689Z,9.22
2023-03-17T19:51:27.260Z,9.13
2023-03-17T19:56:30.720Z,9.12
2023-03-17T20:01:33.913Z,9.00
2023-03-17T20:06:38.971Z,8.98
2023-03-17T20:11:42.064Z,9.07
2023-03-17T20:16:45.030Z,9.12
2023-03-17T20:21:49.388Z,9.20
2023-03-17T20:26:54.563Z,9.26
2023-03-17T20:31:57.718Z,9.20
2023-03-17T20:37:02.820Z,9.18
2023-03-17T20:42:10.149Z,9.09
2023-03-17T20:47:14.095Z,9.14
2023-03-17T20:52:20.497Z,9.05
2023-03-17T20:57:23.467Z,8.87
2023-03-17T21:02:26.911Z,8.86
2023-03-17T21:07:31.475Z,8.88
2023-03-17T21:12:34.432Z,8.84
2023-03-17T21:17:38.086Z,8.79
2023-03-17T21:22:42.750Z,8.75
2023-03-17T21:27:46.096Z,8.81
2023-03-17T21:32:49.094Z,8.95
2023-03-17T21:37:53.513Z,8.75
2023-03-17T21:42:56.420Z,8.68
2023-03-17T21:47:59.320Z,8.62
2023-03-17T21:53:03.762Z,8.94
2023-03-17T21:58:06.658Z,8.76
2023-03-17T22:03:10.125Z,8.61
2023-03-17T22:08:14.413Z,8.68
2023-03-17T22:13:17.550Z,8.51
2023-03-17T22:18:20.442Z,8.49
2023-03-17T22:23:25.610Z,8.46
2023-03-17T22:28:29.079Z,8.24
2023-03-17T22:33:32.011Z,8.16
2023-03-17T22:38:36.274Z,8.29
2023-03-17T22:43:40.137Z,8.12
2023-03-17T22:48:43.616Z,7.90
2023-03-17T22:53:48.644Z,7.74
2023-03-17T22:58:51.619Z,7.66
2023-03-17T23:03:55.266Z,7.36
2023-03-17T23:08:59.542Z,7.27
2023-03-17T23:14:02.845Z,7.35
2023-03-17T23:19:06.133Z,7.42
2023-03-17T23:24:10.524Z,7.28
2023-03-17T23:29:13.525Z,7.34
2023-03-17T23:34:16.581Z,7.52
2023-03-17T23:39:22.197Z,7.41
2023-03-17T23:44:25.059Z,7.33
2023-03-17T23:49:27.920Z,7.17
2023-03-17T23:54:33.086Z,7.22
2023-03-17T23:59:36.067Z,7.12
